sensor_id;sensor_type;location;lat;lon;timestamp;P1;durP1;ratioP1;P2;durP2;ratioP2
78901;SDS011;70441;44.758;37.686;2023-06-01T00:00:22;13.75;;;7.18;;
78901;SDS011;70441;44.758;37.686;2023-06-01T00:01:24;15.80;;;7.97;;
78901;SDS011;70441;44.758;37.686;2023-06-01T00:02:25;17.05;;;8.77;;
78901;SDS011;70441;44.758;37.686;2023-06-01T00:03:27;17.05;;;9.10;;
78901;SDS011;70441;44.758;37.686;2023-06-01T00:04:30;17.10;;;9.88;;
78901;SDS011;70441;44.758;37.686;2023-06-01T00:05:31;17.77;;;9.27;;
78901;SDS011;70441;44.758;37.686;2023-06-01T00:06:32;17.90;;;9.25;;
78901;SDS011;70441;44.758;37.686;2023-06-01T00:07:33;18.67;;;8.90;;
78901;SDS011;70441;44.758;37.686;2023-06-01T00:08:35;14.88;;;8.60;;
78901;SDS011;70441;44.758;37.686;2023-06-01T00:09:36;17.90;;;8.77;;
78901;SDS011;70441;44.758;37.686;2023-06-01T00:10:38;17.08;;;8.40;;
78901;SDS011;70441;44.758;37.686;2023-06-01T00:11:39;14.55;;;8.00;;
78901;SDS011;70441;44.758;37.686;2023-06-01T00:12:40;18.05;;;9.02;;
78901;SDS011;70441;44.758;37.686;2023-06-01T00:13:42;18.92;;;8.98;;
78901;SDS011;70441;44.758;37.686;2023-06-01T00:14:44;17.38;;;9.52;;
78901;SDS011;70441;44.758;37.686;2023-06-01T00:15:45;17.50;;;8.90;;
78901;SDS011;70441;44.758;37.686;2023-06-01T00:16:46;18.15;;;9.00;;
78901;SDS011;70441;44.758;37.686;2023-06-01T00:17:48;17.70;;;9.32;;
78901;SDS011;70441;44.758;37.686;2023-06-01T00:18:52;15.95;;;8.70;;
78901;SDS011;70441;44.758;37.686;2023-06-01T00:19:53;17.10;;;8.82;;
78901;SDS011;70441;44.758;37.686;2023-06-01T00:20:54;16.38;;;8.23;;
78901;SDS011;70441;44.758;37.686;2023-06-01T00:21:55;18.23;;;9.02;;
78901;SDS011;70441;44.758;37.686;2023-06-01T00:24:03;18.42;;;7.93;;
78901;SDS011;70441;44.758;37.686;2023-06-01T00:25:05;15.77;;;8.68;;
78901;SDS011;70441;44.758;37.686;2023-06-01T00:26:08;14.18;;;8.20;;
78901;SDS011;70441;44.758;37.686;2023-06-01T00:27:09;17.92;;;8.52;;
78901;SDS011;70441;44.758;37.686;2023-06-01T00:28:10;15.63;;;9.13;;
78901;SDS011;70441;44.758;37.686;2023-06-01T00:29:13;16.92;;;8.60;;
78901;SDS011;70441;44.758;37.686;2023-06-01T00:30:14;18.02;;;8.73;;
78901;SDS011;70441;44.758;37.686;2023-06-01T00:31:15;14.88;;;8.32;;
78901;SDS011;70441;44.758;37.686;2023-06-01T00:32:16;14.40;;;8.75;;
78901;SDS011;70441;44.758;37.686;2023-06-01T00:33:18;17.98;;;8.40;;
78901;SDS011;70441;44.758;37.686;2023-06-01T00:35:21;14.65;;;9.02;;
78901;SDS011;70441;44.758;37.686;2023-06-01T00:36:22;16.90;;;8.45;;
78901;SDS011;70441;44.758;37.686;2023-06-01T00:37:24;17.13;;;9.10;;
78901;SDS011;70441;44.758;37.686;2023-06-01T00:38:25;17.40;;;8.43;;
78901;SDS011;70441;44.758;37.686;2023-06-01T00:39:26;15.20;;;8.18;;
78901;SDS011;70441;44.758;37.686;2023-06-01T00:40:27;15.23;;;8.27;;
78901;SDS011;70441;44.758;37.686;2023-06-01T00:41:29;17.05;;;8.60;;
78901;SDS011;70441;44.758;37.686;2023-06-01T00:42:30;23.38;;;8.43;;
78901;SDS011;70441;44.758;37.686;2023-06-01T00:43:32;18.48;;;9.48;;
78901;SDS011;70441;44.758;37.686;2023-06-01T00:44:33;15.95;;;8.32;;
78901;SDS011;70441;44.758;37.686;2023-06-01T00:45:34;15.13;;;8.73;;
78901;SDS011;70441;44.758;37.686;2023-06-01T00:46:36;16.90;;;8.55;;
78901;SDS011;70441;44.758;37.686;2023-06-01T00:47:41;17.38;;;8.73;;
78901;SDS011;70441;44.758;37.686;2023-06-01T00:48:43;18.60;;;8.82;;
78901;SDS011;70441;44.758;37.686;2023-06-01T00:49:45;17.98;;;9.32;;
78901;SDS011;70441;44.758;37.686;2023-06-01T00:50:47;15.88;;;8.90;;
78901;SDS011;70441;44.758;37.686;2023-06-01T00:51:48;17.52;;;9.27;;
78901;SDS011;70441;44.758;37.686;2023-06-01T00:52:50;17.27;;;8.88;;
78901;SDS011;70441;44.758;37.686;2023-06-01T00:53:52;14.95;;;8.07;;
78901;SDS011;70441;44.758;37.686;2023-06-01T00:54:53;19.20;;;8.50;;
78901;SDS011;70441;44.758;37.686;2023-06-01T00:55:54;15.73;;;8.70;;
78901;SDS011;70441;44.758;37.686;2023-06-01T00:56:56;19.05;;;8.82;;
78901;SDS011;70441;44.758;37.686;2023-06-01T00:57:57;17.58;;;8.82;;
78901;SDS011;70441;44.758;37.686;2023-06-01T00:58:59;16.85;;;9.52;;
78901;SDS011;70441;44.758;37.686;2023-06-01T01:01:09;16.85;;;8.75;;
78901;SDS011;70441;44.758;37.686;2023-06-01T01:02:19;16.23;;;8.93;;
78901;SDS011;70441;44.758;37.686;2023-06-01T01:03:22;19.63;;;9.38;;
78901;SDS011;70441;44.758;37.686;2023-06-01T01:04:26;15.15;;;9.13;;
78901;SDS011;70441;44.758;37.686;2023-06-01T01:05:27;19.88;;;9.82;;
78901;SDS011;70441;44.758;37.686;2023-06-01T01:10:22;16.52;;;8.80;;
78901;SDS011;70441;44.758;37.686;2023-06-01T01:11:39;15.13;;;8.98;;
78901;SDS011;70441;44.758;37.686;2023-06-01T01:13:56;19.08;;;9.63;;
78901;SDS011;70441;44.758;37.686;2023-06-01T01:15:12;18.80;;;10.05;;
78901;SDS011;70441;44.758;37.686;2023-06-01T01:16:28;20.40;;;9.18;;
78901;SDS011;70441;44.758;37.686;2023-06-01T01:17:37;18.75;;;9.48;;
78901;SDS011;70441;44.758;37.686;2023-06-01T01:18:48;15.70;;;8.63;;
78901;SDS011;70441;44.758;37.686;2023-06-01T01:19:59;17.98;;;8.98;;
78901;SDS011;70441;44.758;37.686;2023-06-01T01:21:09;17.20;;;9.45;;
78901;SDS011;70441;44.758;37.686;2023-06-01T01:23:02;19.42;;;10.00;;
78901;SDS011;70441;44.758;37.686;2023-06-01T01:26:15;15.57;;;8.27;;
78901;SDS011;70441;44.758;37.686;2023-06-01T01:27:57;16.83;;;8.85;;
78901;SDS011;70441;44.758;37.686;2023-06-01T01:29:14;16.52;;;8.70;;
78901;SDS011;70441;44.758;37.686;2023-06-01T01:30:17;16.25;;;8.18;;
78901;SDS011;70441;44.758;37.686;2023-06-01T01:31:23;17.10;;;8.52;;
78901;SDS011;70441;44.758;37.686;2023-06-01T01:32:26;16.17;;;8.25;;
78901;SDS011;70441;44.758;37.686;2023-06-01T01:33:28;20.38;;;9.60;;
78901;SDS011;70441;44.758;37.686;2023-06-01T01:34:30;15.38;;;8.57;;
78901;SDS011;70441;44.758;37.686;2023-06-01T01:35:32;13.60;;;7.97;;
78901;SDS011;70441;44.758;37.686;2023-06-01T01:36:34;12.63;;;7.30;;
78901;SDS011;70441;44.758;37.686;2023-06-01T01:37:49;13.85;;;8.48;;
78901;SDS011;70441;44.758;37.686;2023-06-01T01:38:52;15.85;;;8.38;;
78901;SDS011;70441;44.758;37.686;2023-06-01T01:39:53;15.73;;;8.35;;
78901;SDS011;70441;44.758;37.686;2023-06-01T01:40:54;13.35;;;7.30;;
78901;SDS011;70441;44.758;37.686;2023-06-01T01:42:58;10.95;;;6.55;;
78901;SDS011;70441;44.758;37.686;2023-06-01T01:44:00;14.70;;;7.68;;
78901;SDS011;70441;44.758;37.686;2023-06-01T01:45:02;12.40;;;7.07;;
78901;SDS011;70441;44.758;37.686;2023-06-01T01:47:43;10.88;;;6.43;;
78901;SDS011;70441;44.758;37.686;2023-06-01T01:50:03;11.30;;;6.80;;
78901;SDS011;70441;44.758;37.686;2023-06-01T01:51:10;13.20;;;7.40;;
78901;SDS011;70441;44.758;37.686;2023-06-01T01:52:18;12.43;;;7.68;;
78901;SDS011;70441;44.758;37.686;2023-06-01T01:53:22;15.05;;;8.80;;
78901;SDS011;70441;44.758;37.686;2023-06-01T01:54:25;14.00;;;6.75;;
78901;SDS011;70441;44.758;37.686;2023-06-01T01:55:29;12.27;;;7.00;;
78901;SDS011;70441;44.758;37.686;2023-06-01T01:56:32;11.30;;;6.50;;
78901;SDS011;70441;44.758;37.686;2023-06-01T01:57:36;14.43;;;7.28;;
78901;SDS011;70441;44.758;37.686;2023-06-01T01:58:39;15.20;;;6.88;;
78901;SDS011;70441;44.758;37.686;2023-06-01T01:59:42;12.23;;;7.00;;
78901;SDS011;70441;44.758;37.686;2023-06-01T02:00:44;12.90;;;7.97;;
78901;SDS011;70441;44.758;37.686;2023-06-01T02:01:47;12.15;;;6.75;;
78901;SDS011;70441;44.758;37.686;2023-06-01T02:02:48;12.48;;;6.97;;
78901;SDS011;70441;44.758;37.686;2023-06-01T02:03:57;12.63;;;7.20;;
78901;SDS011;70441;44.758;37.686;2023-06-01T02:05:06;12.90;;;6.97;;
78901;SDS011;70441;44.758;37.686;2023-06-01T02:06:08;13.80;;;7.35;;
78901;SDS011;70441;44.758;37.686;2023-06-01T02:07:10;13.20;;;7.45;;
78901;SDS011;70441;44.758;37.686;2023-06-01T02:08:12;11.75;;;7.07;;
78901;SDS011;70441;44.758;37.686;2023-06-01T02:09:18;15.02;;;7.75;;
78901;SDS011;70441;44.758;37.686;2023-06-01T02:10:20;13.77;;;7.68;;
78901;SDS011;70441;44.758;37.686;2023-06-01T02:11:22;13.48;;;7.53;;
78901;SDS011;70441;44.758;37.686;2023-06-01T02:12:23;13.07;;;8.13;;
78901;SDS011;70441;44.758;37.686;2023-06-01T02:13:25;12.38;;;8.00;;
78901;SDS011;70441;44.758;37.686;2023-06-01T02:14:26;12.75;;;8.00;;
78901;SDS011;70441;44.758;37.686;2023-06-01T02:15:28;12.18;;;6.95;;
78901;SDS011;70441;44.758;37.686;2023-06-01T02:16:29;12.35;;;7.65;;
78901;SDS011;70441;44.758;37.686;2023-06-01T02:17:31;12.50;;;8.20;;
78901;SDS011;70441;44.758;37.686;2023-06-01T02:18:34;11.95;;;7.13;;
78901;SDS011;70441;44.758;37.686;2023-06-01T02:19:40;12.55;;;7.18;;
78901;SDS011;70441;44.758;37.686;2023-06-01T02:20:41;14.82;;;7.53;;
78901;SDS011;70441;44.758;37.686;2023-06-01T02:22:45;13.75;;;7.72;;
78901;SDS011;70441;44.758;37.686;2023-06-01T02:23:46;15.07;;;8.00;;
78901;SDS011;70441;44.758;37.686;2023-06-01T02:24:48;14.32;;;7.32;;
78901;SDS011;70441;44.758;37.686;2023-06-01T02:25:49;13.63;;;7.28;;
78901;SDS011;70441;44.758;37.686;2023-06-01T02:26:52;13.88;;;8.15;;
78901;SDS011;70441;44.758;37.686;2023-06-01T02:28:56;12.68;;;7.60;;
78901;SDS011;70441;44.758;37.686;2023-06-01T02:30:00;14.48;;;9.13;;
78901;SDS011;70441;44.758;37.686;2023-06-01T02:31:02;15.23;;;8.18;;
78901;SDS011;70441;44.758;37.686;2023-06-01T02:33:06;15.57;;;8.95;;
78901;SDS011;70441;44.758;37.686;2023-06-01T02:34:08;14.02;;;7.65;;
78901;SDS011;70441;44.758;37.686;2023-06-01T02:35:09;14.75;;;7.85;;
78901;SDS011;70441;44.758;37.686;2023-06-01T02:36:11;15.20;;;8.23;;
78901;SDS011;70441;44.758;37.686;2023-06-01T02:37:13;16.05;;;8.57;;
78901;SDS011;70441;44.758;37.686;2023-06-01T02:38:14;14.13;;;8.50;;
78901;SDS011;70441;44.758;37.686;2023-06-01T02:39:16;14.40;;;7.90;;
78901;SDS011;70441;44.758;37.686;2023-06-01T02:40:18;16.17;;;8.18;;
78901;SDS011;70441;44.758;37.686;2023-06-01T02:41:20;13.65;;;7.95;;
78901;SDS011;70441;44.758;37.686;2023-06-01T02:42:22;14.43;;;8.63;;
78901;SDS011;70441;44.758;37.686;2023-06-01T02:43:23;12.63;;;8.35;;
78901;SDS011;70441;44.758;37.686;2023-06-01T02:44:25;13.52;;;7.95;;
78901;SDS011;70441;44.758;37.686;2023-06-01T02:45:26;14.02;;;8.82;;
78901;SDS011;70441;44.758;37.686;2023-06-01T02:46:28;14.38;;;8.60;;
78901;SDS011;70441;44.758;37.686;2023-06-01T02:47:30;17.58;;;9.00;;
78901;SDS011;70441;44.758;37.686;2023-06-01T02:48:31;14.63;;;8.70;;
78901;SDS011;70441;44.758;37.686;2023-06-01T02:49:32;14.55;;;8.73;;
78901;SDS011;70441;44.758;37.686;2023-06-01T02:50:34;14.00;;;8.57;;
78901;SDS011;70441;44.758;37.686;2023-06-01T02:51:36;15.65;;;8.43;;
78901;SDS011;70441;44.758;37.686;2023-06-01T02:52:48;16.73;;;9.05;;
78901;SDS011;70441;44.758;37.686;2023-06-01T02:53:49;14.13;;;8.63;;
78901;SDS011;70441;44.758;37.686;2023-06-01T02:54:51;12.77;;;8.25;;
78901;SDS011;70441;44.758;37.686;2023-06-01T02:56:10;15.13;;;8.90;;
78901;SDS011;70441;44.758;37.686;2023-06-01T02:57:30;14.80;;;8.52;;
78901;SDS011;70441;44.758;37.686;2023-06-01T02:58:37;16.00;;;8.85;;
78901;SDS011;70441;44.758;37.686;2023-06-01T02:59:45;16.33;;;9.55;;
78901;SDS011;70441;44.758;37.686;2023-06-01T03:00:47;14.23;;;9.13;;
78901;SDS011;70441;44.758;37.686;2023-06-01T03:01:48;14.85;;;9.10;;
78901;SDS011;70441;44.758;37.686;2023-06-01T03:02:50;16.33;;;9.15;;
78901;SDS011;70441;44.758;37.686;2023-06-01T03:03:54;16.08;;;8.95;;
78901;SDS011;70441;44.758;37.686;2023-06-01T03:04:56;15.20;;;9.35;;
78901;SDS011;70441;44.758;37.686;2023-06-01T03:05:58;15.10;;;8.88;;
78901;SDS011;70441;44.758;37.686;2023-06-01T03:07:18;16.98;;;9.38;;
78901;SDS011;70441;44.758;37.686;2023-06-01T03:08:28;17.00;;;9.38;;
78901;SDS011;70441;44.758;37.686;2023-06-01T03:09:30;18.40;;;10.50;;
78901;SDS011;70441;44.758;37.686;2023-06-01T03:10:57;17.23;;;9.27;;
78901;SDS011;70441;44.758;37.686;2023-06-01T03:12:06;16.75;;;9.43;;
78901;SDS011;70441;44.758;37.686;2023-06-01T03:13:10;14.52;;;9.50;;
78901;SDS011;70441;44.758;37.686;2023-06-01T03:14:12;16.35;;;9.52;;
78901;SDS011;70441;44.758;37.686;2023-06-01T03:15:14;16.35;;;9.00;;
78901;SDS011;70441;44.758;37.686;2023-06-01T03:16:16;14.38;;;8.73;;
78901;SDS011;70441;44.758;37.686;2023-06-01T03:17:28;15.68;;;6.70;;
78901;SDS011;70441;44.758;37.686;2023-06-01T03:18:30;13.50;;;7.80;;
78901;SDS011;70441;44.758;37.686;2023-06-01T03:19:31;12.55;;;7.63;;
78901;SDS011;70441;44.758;37.686;2023-06-01T03:20:36;14.45;;;8.30;;
78901;SDS011;70441;44.758;37.686;2023-06-01T03:21:37;14.73;;;7.57;;
78901;SDS011;70441;44.758;37.686;2023-06-01T03:22:39;15.23;;;7.70;;
78901;SDS011;70441;44.758;37.686;2023-06-01T03:23:41;12.23;;;7.57;;
78901;SDS011;70441;44.758;37.686;2023-06-01T03:24:44;12.70;;;8.60;;
78901;SDS011;70441;44.758;37.686;2023-06-01T03:25:50;15.82;;;9.10;;
78901;SDS011;70441;44.758;37.686;2023-06-01T03:26:52;14.73;;;8.60;;
78901;SDS011;70441;44.758;37.686;2023-06-01T03:27:53;14.18;;;8.50;;
78901;SDS011;70441;44.758;37.686;2023-06-01T03:28:55;14.95;;;7.53;;
78901;SDS011;70441;44.758;37.686;2023-06-01T03:29:56;12.93;;;7.90;;
78901;SDS011;70441;44.758;37.686;2023-06-01T03:30:58;14.98;;;8.00;;
78901;SDS011;70441;44.758;37.686;2023-06-01T03:31:59;15.93;;;8.38;;
78901;SDS011;70441;44.758;37.686;2023-06-01T03:33:01;15.77;;;8.77;;
78901;SDS011;70441;44.758;37.686;2023-06-01T03:34:03;14.70;;;7.78;;
78901;SDS011;70441;44.758;37.686;2023-06-01T03:35:04;15.13;;;8.18;;
78901;SDS011;70441;44.758;37.686;2023-06-01T03:36:09;11.95;;;7.88;;
78901;SDS011;70441;44.758;37.686;2023-06-01T03:37:10;15.60;;;9.02;;
78901;SDS011;70441;44.758;37.686;2023-06-01T03:38:12;14.13;;;8.23;;
78901;SDS011;70441;44.758;37.686;2023-06-01T03:39:17;14.25;;;8.23;;
78901;SDS011;70441;44.758;37.686;2023-06-01T03:40:19;14.23;;;7.63;;
78901;SDS011;70441;44.758;37.686;2023-06-01T03:41:20;13.38;;;7.68;;
78901;SDS011;70441;44.758;37.686;2023-06-01T03:42:23;16.88;;;8.52;;
78901;SDS011;70441;44.758;37.686;2023-06-01T03:43:25;13.88;;;8.32;;
78901;SDS011;70441;44.758;37.686;2023-06-01T03:44:26;15.18;;;8.35;;
78901;SDS011;70441;44.758;37.686;2023-06-01T03:45:27;15.00;;;7.72;;
78901;SDS011;70441;44.758;37.686;2023-06-01T03:46:29;16.83;;;7.50;;
78901;SDS011;70441;44.758;37.686;2023-06-01T03:47:31;17.10;;;8.50;;
78901;SDS011;70441;44.758;37.686;2023-06-01T03:48:32;15.88;;;8.25;;
78901;SDS011;70441;44.758;37.686;2023-06-01T03:49:34;16.35;;;8.48;;
78901;SDS011;70441;44.758;37.686;2023-06-01T03:50:38;16.15;;;8.57;;
78901;SDS011;70441;44.758;37.686;2023-06-01T03:51:40;14.80;;;8.07;;
78901;SDS011;70441;44.758;37.686;2023-06-01T03:52:41;15.63;;;7.95;;
78901;SDS011;70441;44.758;37.686;2023-06-01T03:53:43;12.70;;;7.05;;
78901;SDS011;70441;44.758;37.686;2023-06-01T03:54:44;15.38;;;8.05;;
78901;SDS011;70441;44.758;37.686;2023-06-01T03:55:59;18.90;;;8.27;;
78901;SDS011;70441;44.758;37.686;2023-06-01T03:57:13;16.20;;;7.72;;
78901;SDS011;70441;44.758;37.686;2023-06-01T03:58:15;15.65;;;8.20;;
78901;SDS011;70441;44.758;37.686;2023-06-01T03:59:16;14.75;;;7.53;;
78901;SDS011;70441;44.758;37.686;2023-06-01T04:00:18;13.98;;;8.02;;
78901;SDS011;70441;44.758;37.686;2023-06-01T04:01:27;20.42;;;8.20;;
78901;SDS011;70441;44.758;37.686;2023-06-01T04:02:31;14.93;;;8.50;;
78901;SDS011;70441;44.758;37.686;2023-06-01T04:03:33;14.52;;;7.80;;
78901;SDS011;70441;44.758;37.686;2023-06-01T04:04:35;18.40;;;8.52;;
78901;SDS011;70441;44.758;37.686;2023-06-01T04:05:36;14.88;;;7.72;;
78901;SDS011;70441;44.758;37.686;2023-06-01T04:06:38;13.18;;;7.45;;
78901;SDS011;70441;44.758;37.686;2023-06-01T04:07:39;13.43;;;6.53;;
78901;SDS011;70441;44.758;37.686;2023-06-01T04:08:41;14.75;;;6.57;;
78901;SDS011;70441;44.758;37.686;2023-06-01T04:09:49;13.25;;;6.50;;
78901;SDS011;70441;44.758;37.686;2023-06-01T04:10:50;16.30;;;7.25;;
78901;SDS011;70441;44.758;37.686;2023-06-01T04:11:52;15.07;;;7.55;;
78901;SDS011;70441;44.758;37.686;2023-06-01T04:12:54;13.95;;;7.53;;
78901;SDS011;70441;44.758;37.686;2023-06-01T04:13:59;15.57;;;7.38;;
78901;SDS011;70441;44.758;37.686;2023-06-01T04:15:02;15.52;;;7.35;;
78901;SDS011;70441;44.758;37.686;2023-06-01T04:17:06;11.32;;;5.72;;
78901;SDS011;70441;44.758;37.686;2023-06-01T04:18:07;16.13;;;6.53;;
78901;SDS011;70441;44.758;37.686;2023-06-01T04:19:27;12.80;;;6.43;;
78901;SDS011;70441;44.758;37.686;2023-06-01T04:20:34;17.40;;;6.60;;
78901;SDS011;70441;44.758;37.686;2023-06-01T04:21:36;13.02;;;6.63;;
78901;SDS011;70441;44.758;37.686;2023-06-01T04:22:38;10.50;;;5.32;;
78901;SDS011;70441;44.758;37.686;2023-06-01T04:23:42;12.18;;;5.82;;
78901;SDS011;70441;44.758;37.686;2023-06-01T04:24:46;13.70;;;6.88;;
78901;SDS011;70441;44.758;37.686;2023-06-01T04:25:49;13.73;;;6.43;;
78901;SDS011;70441;44.758;37.686;2023-06-01T04:26:53;11.60;;;5.90;;
78901;SDS011;70441;44.758;37.686;2023-06-01T04:28:58;11.75;;;5.43;;
78901;SDS011;70441;44.758;37.686;2023-06-01T04:29:59;11.52;;;5.68;;
78901;SDS011;70441;44.758;37.686;2023-06-01T04:31:01;11.43;;;5.10;;
78901;SDS011;70441;44.758;37.686;2023-06-01T04:32:04;13.43;;;5.78;;
78901;SDS011;70441;44.758;37.686;2023-06-01T04:33:06;10.77;;;5.88;;
78901;SDS011;70441;44.758;37.686;2023-06-01T04:34:09;10.25;;;5.93;;
78901;SDS011;70441;44.758;37.686;2023-06-01T04:36:13;14.27;;;5.63;;
78901;SDS011;70441;44.758;37.686;2023-06-01T04:37:22;12.82;;;5.80;;
78901;SDS011;70441;44.758;37.686;2023-06-01T04:38:25;12.73;;;5.75;;
78901;SDS011;70441;44.758;37.686;2023-06-01T04:39:27;14.00;;;6.13;;
78901;SDS011;70441;44.758;37.686;2023-06-01T04:40:29;11.75;;;5.95;;
78901;SDS011;70441;44.758;37.686;2023-06-01T04:41:31;12.93;;;5.88;;
78901;SDS011;70441;44.758;37.686;2023-06-01T04:42:34;15.43;;;6.32;;
78901;SDS011;70441;44.758;37.686;2023-06-01T04:43:37;15.63;;;6.10;;
78901;SDS011;70441;44.758;37.686;2023-06-01T04:44:42;11.27;;;4.88;;
78901;SDS011;70441;44.758;37.686;2023-06-01T04:45:46;11.45;;;5.82;;
78901;SDS011;70441;44.758;37.686;2023-06-01T04:46:48;12.98;;;5.88;;
78901;SDS011;70441;44.758;37.686;2023-06-01T04:47:52;10.02;;;5.57;;
78901;SDS011;70441;44.758;37.686;2023-06-01T04:49:21;11.80;;;5.13;;
78901;SDS011;70441;44.758;37.686;2023-06-01T04:50:23;14.02;;;5.85;;
78901;SDS011;70441;44.758;37.686;2023-06-01T04:51:24;12.85;;;5.93;;
78901;SDS011;70441;44.758;37.686;2023-06-01T04:52:27;12.60;;;6.15;;
78901;SDS011;70441;44.758;37.686;2023-06-01T04:53:29;11.43;;;5.75;;
78901;SDS011;70441;44.758;37.686;2023-06-01T04:54:30;12.65;;;5.45;;
78901;SDS011;70441;44.758;37.686;2023-06-01T04:55:32;11.88;;;6.03;;
78901;SDS011;70441;44.758;37.686;2023-06-01T04:56:33;15.13;;;5.93;;
78901;SDS011;70441;44.758;37.686;2023-06-01T04:57:35;11.35;;;5.82;;
78901;SDS011;70441;44.758;37.686;2023-06-01T04:58:38;11.20;;;5.78;;
78901;SDS011;70441;44.758;37.686;2023-06-01T04:59:40;11.73;;;6.57;;
78901;SDS011;70441;44.758;37.686;2023-06-01T05:00:42;12.40;;;4.93;;
78901;SDS011;70441;44.758;37.686;2023-06-01T05:01:44;11.25;;;5.82;;
78901;SDS011;70441;44.758;37.686;2023-06-01T05:02:45;15.00;;;5.38;;
78901;SDS011;70441;44.758;37.686;2023-06-01T05:03:48;10.27;;;5.75;;
78901;SDS011;70441;44.758;37.686;2023-06-01T05:04:50;10.88;;;5.65;;
78901;SDS011;70441;44.758;37.686;2023-06-01T05:05:51;10.70;;;5.03;;
78901;SDS011;70441;44.758;37.686;2023-06-01T05:06:52;11.45;;;5.40;;
78901;SDS011;70441;44.758;37.686;2023-06-01T05:07:54;9.93;;;5.20;;
78901;SDS011;70441;44.758;37.686;2023-06-01T05:08:55;16.75;;;6.40;;
78901;SDS011;70441;44.758;37.686;2023-06-01T05:09:58;12.30;;;5.40;;
78901;SDS011;70441;44.758;37.686;2023-06-01T05:11:05;8.50;;;4.55;;
78901;SDS011;70441;44.758;37.686;2023-06-01T05:12:08;10.98;;;4.97;;
78901;SDS011;70441;44.758;37.686;2023-06-01T05:13:09;16.08;;;5.47;;
78901;SDS011;70441;44.758;37.686;2023-06-01T05:14:12;13.40;;;5.40;;
78901;SDS011;70441;44.758;37.686;2023-06-01T05:15:14;10.32;;;5.63;;
78901;SDS011;70441;44.758;37.686;2023-06-01T05:16:17;11.80;;;5.68;;
78901;SDS011;70441;44.758;37.686;2023-06-01T05:17:18;11.43;;;5.72;;
78901;SDS011;70441;44.758;37.686;2023-06-01T05:18:20;14.13;;;5.20;;
78901;SDS011;70441;44.758;37.686;2023-06-01T05:19:21;12.75;;;5.80;;
78901;SDS011;70441;44.758;37.686;2023-06-01T05:20:23;9.45;;;4.45;;
78901;SDS011;70441;44.758;37.686;2023-06-01T05:21:29;12.30;;;5.15;;
78901;SDS011;70441;44.758;37.686;2023-06-01T05:22:32;11.23;;;4.82;;
78901;SDS011;70441;44.758;37.686;2023-06-01T05:23:33;10.55;;;5.38;;
78901;SDS011;70441;44.758;37.686;2023-06-01T05:24:34;12.98;;;4.75;;
78901;SDS011;70441;44.758;37.686;2023-06-01T05:25:36;11.07;;;4.82;;
78901;SDS011;70441;44.758;37.686;2023-06-01T05:26:38;10.55;;;4.72;;
78901;SDS011;70441;44.758;37.686;2023-06-01T05:27:39;12.80;;;4.95;;
78901;SDS011;70441;44.758;37.686;2023-06-01T05:28:41;14.45;;;4.88;;
78901;SDS011;70441;44.758;37.686;2023-06-01T05:29:45;11.73;;;4.55;;
78901;SDS011;70441;44.758;37.686;2023-06-01T05:30:47;11.38;;;4.82;;
78901;SDS011;70441;44.758;37.686;2023-06-01T05:31:49;8.95;;;4.28;;
78901;SDS011;70441;44.758;37.686;2023-06-01T05:32:51;12.95;;;5.43;;
78901;SDS011;70441;44.758;37.686;2023-06-01T05:33:54;12.02;;;5.20;;
78901;SDS011;70441;44.758;37.686;2023-06-01T05:34:56;11.40;;;4.65;;
78901;SDS011;70441;44.758;37.686;2023-06-01T05:35:58;13.23;;;5.10;;
78901;SDS011;70441;44.758;37.686;2023-06-01T05:37:01;13.02;;;5.18;;
78901;SDS011;70441;44.758;37.686;2023-06-01T05:38:03;13.52;;;5.38;;
78901;SDS011;70441;44.758;37.686;2023-06-01T05:39:05;12.20;;;5.25;;
78901;SDS011;70441;44.758;37.686;2023-06-01T05:40:07;14.30;;;5.40;;
78901;SDS011;70441;44.758;37.686;2023-06-01T05:41:10;10.52;;;4.63;;
78901;SDS011;70441;44.758;37.686;2023-06-01T05:42:11;11.45;;;4.68;;
78901;SDS011;70441;44.758;37.686;2023-06-01T05:43:14;12.70;;;4.90;;
78901;SDS011;70441;44.758;37.686;2023-06-01T05:44:16;13.32;;;5.05;;
78901;SDS011;70441;44.758;37.686;2023-06-01T05:45:18;10.15;;;4.22;;
78901;SDS011;70441;44.758;37.686;2023-06-01T05:46:19;10.63;;;4.20;;
78901;SDS011;70441;44.758;37.686;2023-06-01T05:47:21;8.02;;;3.75;;
78901;SDS011;70441;44.758;37.686;2023-06-01T05:48:22;11.18;;;4.60;;
78901;SDS011;70441;44.758;37.686;2023-06-01T05:49:27;9.50;;;4.40;;
78901;SDS011;70441;44.758;37.686;2023-06-01T05:50:32;10.88;;;4.00;;
78901;SDS011;70441;44.758;37.686;2023-06-01T05:51:33;11.52;;;4.35;;
78901;SDS011;70441;44.758;37.686;2023-06-01T05:52:38;13.05;;;4.78;;
78901;SDS011;70441;44.758;37.686;2023-06-01T05:53:40;8.15;;;4.28;;
78901;SDS011;70441;44.758;37.686;2023-06-01T05:54:42;9.68;;;3.50;;
78901;SDS011;70441;44.758;37.686;2023-06-01T05:55:43;14.85;;;4.97;;
78901;SDS011;70441;44.758;37.686;2023-06-01T05:56:44;9.95;;;4.28;;
78901;SDS011;70441;44.758;37.686;2023-06-01T05:57:47;12.23;;;4.10;;
78901;SDS011;70441;44.758;37.686;2023-06-01T05:58:49;10.55;;;4.18;;
78901;SDS011;70441;44.758;37.686;2023-06-01T05:59:54;8.70;;;3.70;;
78901;SDS011;70441;44.758;37.686;2023-06-01T06:00:55;10.60;;;4.65;;
78901;SDS011;70441;44.758;37.686;2023-06-01T06:01:57;9.98;;;4.25;;
78901;SDS011;70441;44.758;37.686;2023-06-01T06:02:58;7.47;;;3.47;;
78901;SDS011;70441;44.758;37.686;2023-06-01T06:03:59;11.80;;;4.25;;
78901;SDS011;70441;44.758;37.686;2023-06-01T06:05:01;9.02;;;4.25;;
78901;SDS011;70441;44.758;37.686;2023-06-01T06:06:04;11.27;;;4.65;;
78901;SDS011;70441;44.758;37.686;2023-06-01T06:07:06;9.98;;;4.45;;
78901;SDS011;70441;44.758;37.686;2023-06-01T06:08:07;8.27;;;4.00;;
78901;SDS011;70441;44.758;37.686;2023-06-01T06:09:08;10.35;;;4.38;;
78901;SDS011;70441;44.758;37.686;2023-06-01T06:11:12;9.13;;;4.13;;
78901;SDS011;70441;44.758;37.686;2023-06-01T06:12:14;9.90;;;3.90;;
78901;SDS011;70441;44.758;37.686;2023-06-01T06:13:15;10.98;;;5.18;;
78901;SDS011;70441;44.758;37.686;2023-06-01T06:14:16;11.25;;;4.70;;
78901;SDS011;70441;44.758;37.686;2023-06-01T06:15:18;8.95;;;4.45;;
78901;SDS011;70441;44.758;37.686;2023-06-01T06:16:19;9.55;;;4.60;;
78901;SDS011;70441;44.758;37.686;2023-06-01T06:17:21;7.88;;;4.43;;
78901;SDS011;70441;44.758;37.686;2023-06-01T06:18:22;10.25;;;4.78;;
78901;SDS011;70441;44.758;37.686;2023-06-01T06:19:23;8.68;;;4.50;;
78901;SDS011;70441;44.758;37.686;2023-06-01T06:20:25;10.02;;;4.30;;
78901;SDS011;70441;44.758;37.686;2023-06-01T06:21:26;7.13;;;3.38;;
78901;SDS011;70441;44.758;37.686;2023-06-01T06:22:27;10.55;;;4.15;;
78901;SDS011;70441;44.758;37.686;2023-06-01T06:23:28;11.27;;;4.57;;
78901;SDS011;70441;44.758;37.686;2023-06-01T06:25:31;12.05;;;5.78;;
78901;SDS011;70441;44.758;37.686;2023-06-01T06:26:33;10.63;;;4.57;;
78901;SDS011;70441;44.758;37.686;2023-06-01T06:27:34;6.68;;;3.25;;
78901;SDS011;70441;44.758;37.686;2023-06-01T06:28:35;8.25;;;3.65;;
78901;SDS011;70441;44.758;37.686;2023-06-01T06:29:38;11.45;;;4.75;;
78901;SDS011;70441;44.758;37.686;2023-06-01T06:30:40;11.48;;;4.38;;
78901;SDS011;70441;44.758;37.686;2023-06-01T06:31:42;11.75;;;4.13;;
78901;SDS011;70441;44.758;37.686;2023-06-01T06:32:43;11.00;;;4.13;;
78901;SDS011;70441;44.758;37.686;2023-06-01T06:33:45;7.43;;;4.05;;